sensor_id;sensor_type;location;lat;lon;timestamp;pressure;altitude;pressure_sealevel;temperature;humidity
47710;BME280;33473;51.640;5.892;2023-03-20T00:04:05;101900;;;13.4;57.0
47710;BME280;33473;51.640;5.892;2023-03-20T00:17:25;101800;;;13.6;56.0
47710;BME280;33473;51.640;5.892;2023-03-20T00:30:44;101800;;;13.2;57.0
47710;BME280;33473;51.640;5.892;2023-03-20T00:44:04;101800;;;13.1;57.0
47710;BME280;33473;51.640;5.892;2023-03-20T00:57:24;101800;;;13.5;57.0
47710;BME280;33473;51.640;5.892;2023-03-20T01:10:43;101800;;;13.7;56.0
47710;BME280;33473;51.640;5.892;2023-03-20T01:24:03;101800;;;13.3;56.0
47710;BME280;33473;51.640;5.892;2023-03-20T01:37:23;101900;;;13.5;57.0
47710;BME280;33473;51.640;5.892;2023-03-20T01:50:42;101900;;;12.7;58.0
47710;BME280;33473;51.640;5.892;2023-03-20T02:04:02;101900;;;12.4;58.0
47710;BME280;33473;51.640;5.892;2023-03-20T02:17:22;101800;;;12.6;58.0
47710;BME280;33473;51.640;5.892;2023-03-20T02:30:41;101800;;;12.3;57.0
47710;BME280;33473;51.640;5.892;2023-03-20T02:44:01;101900;;;12.1;58.0
47710;BME280;33473;51.640;5.892;2023-03-20T02:57:21;101900;;;11.9;58.0
47710;BME280;33473;51.640;5.892;2023-03-20T03:10:40;101800;;;12.6;56.0
47710;BME280;33473;51.640;5.892;2023-03-20T03:24:00;101800;;;12.6;55.0
47710;BME280;33473;51.640;5.892;2023-03-20T03:37:20;101800;;;12.8;54.0
47710;BME280;33473;51.640;5.892;2023-03-20T03:50:39;101800;;;12.8;54.0
47710;BME280;33473;51.640;5.892;2023-03-20T04:03:59;101800;;;12.7;54.0
47710;BME280;33473;51.640;5.892;2023-03-20T04:17:19;101800;;;12.6;54.0
47710;BME280;33473;51.640;5.892;2023-03-20T04:30:38;101800;;;12.5;54.0
47710;BME280;33473;51.640;5.892;2023-03-20T04:43:58;101800;;;12.4;54.0
47710;BME280;33473;51.640;5.892;2023-03-20T04:57:18;101800;;;12.3;54.0
47710;BME280;33473;51.640;5.892;2023-03-20T05:10:37;101800;;;12.3;54.0
47710;BME280;33473;51.640;5.892;2023-03-20T05:23:57;101800;;;12.3;54.0
47710;BME280;33473;51.640;5.892;2023-03-20T05:37:17;101800;;;12.2;54.0
47710;BME280;33473;51.640;5.892;2023-03-20T05:50:36;101800;;;12.3;54.0
47710;BME280;33473;51.640;5.892;2023-03-20T06:03:56;101800;;;12.4;54.0
47710;BME280;33473;51.640;5.892;2023-03-20T06:17:16;101800;;;12.2;53.0
47710;BME280;33473;51.640;5.892;2023-03-20T06:30:35;101800;;;12.5;53.0
47710;BME280;33473;51.640;5.892;2023-03-20T06:43:55;101800;;;12.5;53.0
47710;BME280;33473;51.640;5.892;2023-03-20T06:57:17;101800;;;12.8;53.0
47710;BME280;33473;51.640;5.892;2023-03-20T07:10:37;101800;;;13.1;52.0
47710;BME280;33473;51.640;5.892;2023-03-20T07:23:57;101800;;;13.2;51.0
47710;BME280;33473;51.640;5.892;2023-03-20T07:37:16;101800;;;13.1;50.0
47710;BME280;33473;51.640;5.892;2023-03-20T07:50:36;101800;;;13.6;50.0
47710;BME280;33473;51.640;5.892;2023-03-20T08:03:56;101800;;;13.7;49.0
47710;BME280;33473;51.640;5.892;2023-03-20T08:17:15;101800;;;13.7;49.0
47710;BME280;33473;51.640;5.892;2023-03-20T08:30:35;101800;;;13.5;50.0
47710;BME280;33473;51.640;5.892;2023-03-20T08:43:55;101800;;;14.1;47.0
47710;BME280;33473;51.640;5.892;2023-03-20T08:57:15;101800;;;13.6;49.0
47710;BME280;33473;51.640;5.892;2023-03-20T09:10:34;101800;;;13.5;49.0
47710;BME280;33473;51.640;5.892;2023-03-20T09:23:54;101800;;;13.7;49.0
47710;BME280;33473;51.640;5.892;2023-03-20T09:37:14;101800;;;13.9;48.0
47710;BME280;33473;51.640;5.892;2023-03-20T09:50:33;101800;;;14.1;47.0
47710;BME280;33473;51.640;5.892;2023-03-20T10:03:53;101900;;;13.8;50.0
47710;BME280;33473;51.640;5.892;2023-03-20T10:17:13;101900;;;13.3;52.0
47710;BME280;33473;51.640;5.892;2023-03-20T10:30:32;101900;;;13.1;51.0
47710;BME280;33473;51.640;5.892;2023-03-20T10:43:52;101900;;;13.3;51.0
47710;BME280;33473;51.640;5.892;2023-03-20T10:57:12;101800;;;14.5;46.0
47710;BME280;33473;51.640;5.892;2023-03-20T11:10:31;101800;;;12.9;50.0
47710;BME280;33473;51.640;5.892;2023-03-20T11:23:51;101800;;;14.6;50.0
47710;BME280;33473;51.640;5.892;2023-03-20T11:37:11;101800;;;14.6;49.0
47710;BME280;33473;51.640;5.892;2023-03-20T11:50:30;101800;;;14.7;49.0
47710;BME280;33473;51.640;5.892;2023-03-20T12:03:50;101800;;;15.2;48.0
47710;BME280;33473;51.640;5.892;2023-03-20T12:17:10;101800;;;15.6;47.0
47710;BME280;33473;51.640;5.892;2023-03-20T12:30:29;101800;;;15.9;45.0
47710;BME280;33473;51.640;5.892;2023-03-20T12:43:49;101800;;;16.1;46.0
47710;BME280;33473;51.640;5.892;2023-03-20T12:57:09;101800;;;15.8;48.0
47710;BME280;33473;51.640;5.892;2023-03-20T13:10:29;101700;;;16.0;47.0
47710;BME280;33473;51.640;5.892;2023-03-20T13:23:48;101700;;;16.3;45.0
47710;BME280;33473;51.640;5.892;2023-03-20T13:37:08;101700;;;16.1;45.0
47710;BME280;33473;51.640;5.892;2023-03-20T13:50:28;101700;;;15.8;46.0
47710;BME280;33473;51.640;5.892;2023-03-20T14:03:47;101700;;;16.1;48.0
47710;BME280;33473;51.640;5.892;2023-03-20T14:17:07;101700;;;16.1;48.0
47710;BME280;33473;51.640;5.892;2023-03-20T14:30:27;101700;;;15.4;48.0
47710;BME280;33473;51.640;5.892;2023-03-20T14:43:46;101700;;;15.8;50.0
47710;BME280;33473;51.640;5.892;2023-03-20T14:57:06;101600;;;15.7;50.0
47710;BME280;33473;51.640;5.892;2023-03-20T15:10:26;101600;;;15.8;50.0
47710;BME280;33473;51.640;5.892;2023-03-20T15:23:45;101600;;;15.4;50.0
47710;BME280;33473;51.640;5.892;2023-03-20T15:37:05;101600;;;15.4;49.0
47710;BME280;33473;51.640;5.892;2023-03-20T15:50:25;101600;;;15.0;50.0
47710;BME280;33473;51.640;5.892;2023-03-20T16:03:44;101600;;;14.9;50.0
47710;BME280;33473;51.640;5.892;2023-03-20T16:17:04;101600;;;15.3;49.0
47710;BME280;33473;51.640;5.892;2023-03-20T16:30:23;101600;;;15.6;48.0
47710;BME280;33473;51.640;5.892;2023-03-20T16:43:43;101600;;;15.8;48.0
47710;BME280;33473;51.640;5.892;2023-03-20T16:57:03;101600;;;15.7;46.0
47710;BME280;33473;51.640;5.892;2023-03-20T17:10:22;101600;;;16.1;46.0
47710;BME280;33473;51.640;5.892;2023-03-20T17:23:42;101600;;;16.2;45.0
47710;BME280;33473;51.640;5.892;2023-03-20T17:37:02;101600;;;16.1;46.0
47710;BME280;33473;51.640;5.892;2023-03-20T17:50:22;101600;;;16.0;46.0
47710;BME280;33473;51.640;5.892;2023-03-20T18:03:41;101600;;;15.9;47.0
47710;BME280;33473;51.640;5.892;2023-03-20T18:17:01;101600;;;15.9;47.0
47710;BME280;33473;51.640;5.892;2023-03-20T18:30:21;101600;;;15.8;48.0
47710;BME280;33473;51.640;5.892;2023-03-20T18:43:40;101600;;;15.8;48.0
47710;BME280;33473;51.640;5.892;2023-03-20T18:57:00;101600;;;15.7;49.0
47710;BME280;33473;51.640;5.892;2023-03-20T19:10:20;101600;;;15.9;49.0
47710;BME280;33473;51.640;5.892;2023-03-20T19:23:39;101600;;;15.8;49.0
47710;BME280;33473;51.640;5.892;2023-03-20T19:36:59;101600;;;15.8;49.0
47710;BME280;33473;51.640;5.892;2023-03-20T19:50:19;101600;;;15.8;49.0
47710;BME280;33473;51.640;5.892;2023-03-20T20:03:38;101600;;;15.9;49.0
47710;BME280;33473;51.640;5.892;2023-03-20T20:16:58;101600;;;16.0;49.0
47710;BME280;33473;51.640;5.892;2023-03-20T20:30:18;101600;;;15.9;49.0
47710;BME280;33473;51.640;5.892;2023-03-20T20:43:37;101600;;;15.9;49.0
47710;BME280;33473;51.640;5.892;2023-03-20T20:56:57;101600;;;15.5;51.0
47710;BME280;33473;51.640;5.892;2023-03-20T21:10:17;101600;;;15.8;50.0
47710;BME280;33473;51.640;5.892;2023-03-20T21:23:37;101600;;;15.8;50.0
47710;BME280;33473;51.640;5.892;2023-03-20T21:36:56;101600;;;16.0;50.0
47710;BME280;33473;51.640;5.892;2023-03-20T21:50:16;101600;;;16.1;49.0
47710;BME280;33473;51.640;5.892;2023-03-20T22:03:36;101600;;;16.0;49.0
47710;BME280;33473;51.640;5.892;2023-03-20T22:16:55;101600;;;16.0;50.0
47710;BME280;33473;51.640;5.892;2023-03-20T22:30:15;101600;;;16.0;50.0
47710;BME280;33473;51.640;5.892;2023-03-20T22:43:35;101600;;;16.0;50.0
47710;BME280;33473;51.640;5.892;2023-03-20T22:56:54;101600;;;16.0;50.0
47710;BME280;33473;51.640;5.892;2023-03-20T23:10:14;101600;;;15.9;51.0
47710;BME280;33473;51.640;5.892;2023-03-20T23:23:34;101600;;;15.9;52.0
47710;BME280;33473;51.640;5.892;2023-03-20T23:36:53;101600;;;14.8;55.0
47710;BME280;33473;51.640;5.892;2023-03-20T23:50:13;101600;;;15.0;55.0
